createdAt,value
2018-10-06T10:25:06.706Z,50.543213
2018-10-06T10:25:21.732Z,50.744629
2018-10-06T10:25:36.719Z,50.3479
2018-10-06T10:25:51.648Z,50.646973
2018-10-06T10:26:06.618Z,50.543213
2018-10-06T10:26:21.635Z,50.3479
2018-10-06T10:26:36.606Z,50.543213
2018-10-06T10:26:51.586Z,50.445557
2018-10-06T10:27:06.638Z,50.543213
2018-10-06T10:27:21.550Z,50.244141
2018-10-06T10:27:36.531Z,53.540039
2018-10-06T10:27:51.529Z,50.543213
2018-10-06T10:28:24.177Z,50.646973
2018-10-06T10:28:39.103Z,50.3479
2018-10-06T10:28:53.999Z,50.445557
2018-10-06T10:29:08.867Z,50.842285
2018-10-06T10:29:23.946Z,50.445557
2018-10-06T10:29:38.830Z,50.244141
2018-10-06T10:29:53.867Z,50.3479
2018-10-06T10:30:08.795Z,50.244141
2018-10-06T10:30:23.799Z,50.646973
2018-10-06T10:30:38.829Z,50.3479
2018-10-06T10:31:45.890Z,50.323486
2018-10-06T10:32:45.822Z,50.219727
2018-10-06T10:33:45.629Z,50.146484
2018-10-06T10:34:45.627Z,50.146484
2018-10-06T10:35:45.572Z,50.946045
2018-10-06T10:36:45.497Z,50.646973
2018-10-06T10:37:45.456Z,50.744629
2018-10-06T10:38:45.570Z,49.945068
2018-10-06T10:40:00.826Z,50.445557
2018-10-06T10:40:10.756Z,50.543213
2018-10-06T10:40:20.881Z,50.946045
2018-10-06T10:40:30.786Z,50.646973
2018-10-06T10:40:40.681Z,50.946045
2018-10-06T10:40:50.746Z,51.043701
2018-10-06T10:41:00.795Z,50.946045
2018-10-06T10:41:10.842Z,50.744629
2018-10-06T10:41:20.768Z,51.147461
2018-10-06T10:41:30.710Z,51.245117
2018-10-06T10:41:40.761Z,51.745605
2018-10-06T10:41:50.680Z,51.342773
2018-10-06T10:42:00.750Z,51.342773
2018-10-06T10:42:11.316Z,50.946045
2018-10-06T10:42:55.985Z,50.744629
2018-10-06T10:43:25.854Z,50.543213
2018-10-06T10:43:55.849Z,51.147461
2018-10-06T10:44:25.848Z,50.518799
2018-10-06T10:44:55.820Z,53.216553
2018-10-06T10:45:25.790Z,50.421143
2018-10-06T10:45:55.812Z,50.244141
2018-10-06T10:47:05.285Z,50.646973
2018-10-06T10:47:35.191Z,50.3479
2018-10-06T10:48:05.399Z,50.445557
2018-10-06T10:48:35.192Z,50.445557
2018-10-06T10:49:05.176Z,50.543213
2018-10-06T10:49:35.178Z,50.646973
2018-10-06T10:50:04.919Z,50.946045
2018-10-06T10:50:20.033Z,50.646973
2018-10-06T10:50:34.858Z,50.543213
2018-10-06T10:50:50.023Z,50.744629
2018-10-06T10:51:04.919Z,50.744629
2018-10-06T10:51:19.798Z,51.043701
2018-10-06T10:51:34.941Z,51.147461
2018-10-06T10:51:49.814Z,50.646973
2018-10-06T10:52:04.810Z,50.646973
2018-10-06T10:52:19.757Z,50.744629
2018-10-06T10:52:34.804Z,50.744629
2018-10-06T10:53:06.834Z,50.744629
2018-10-06T10:53:21.770Z,50.744629
2018-10-06T10:53:36.800Z,50.946045
2018-10-06T10:53:51.726Z,50.970459
2018-10-06T10:54:26.850Z,50.866699
2018-10-06T10:54:41.956Z,50.970459
2018-10-06T10:54:56.669Z,51.245117
2018-10-06T10:55:11.688Z,50.842285
2018-10-06T10:55:26.565Z,51.068115
2018-10-06T10:55:42.620Z,51.068115
2018-10-06T10:55:56.533Z,51.269531
2018-10-06T10:56:11.523Z,50.866699
2018-10-06T10:56:26.513Z,51.171875
2018-10-06T10:56:41.504Z,51.171875
2018-10-06T10:56:56.523Z,51.342773
2018-10-06T10:57:11.686Z,51.843262
2018-10-06T10:57:26.604Z,51.245117
2018-10-06T10:57:41.695Z,51.043701
2018-10-06T10:57:56.592Z,51.342773
2018-10-06T10:58:11.676Z,50.842285
2018-10-06T10:58:26.573Z,51.043701
2018-10-06T10:58:41.580Z,50.946045
2018-10-06T10:58:56.541Z,50.646973
2018-10-06T10:59:11.492Z,50.646973
2018-10-06T10:59:26.580Z,50.842285
2018-10-06T10:59:41.574Z,50.946045
2018-10-06T10:59:56.796Z,50.744629
2018-10-06T11:00:11.644Z,50.744629
2018-10-06T11:00:26.467Z,51.147461
2018-10-06T11:00:41.548Z,50.842285
2018-10-06T11:00:56.365Z,51.043701
2018-10-06T11:01:11.460Z,51.043701
2018-10-06T11:01:26.405Z,51.043701
2018-10-06T11:01:58.523Z,50.744629
2018-10-06T11:02:13.497Z,50.744629
2018-10-06T11:02:28.372Z,50.744629
2018-10-06T11:02:43.486Z,50.744629
2018-10-06T11:02:58.401Z,50.744629
2018-10-06T11:03:13.364Z,50.744629
2018-10-06T11:03:28.349Z,50.744629
2018-10-06T11:03:43.434Z,50.744629
2018-10-06T11:03:58.463Z,50.744629
2018-10-06T11:04:13.478Z,50.744629
2018-10-06T11:04:29.118Z,50.744629
2018-10-06T11:04:43.616Z,50.744629
2018-10-06T11:04:58.485Z,50.744629
2018-10-06T11:05:13.427Z,50.744629
2018-10-06T11:05:28.415Z,50.744629
2018-10-06T11:05:43.395Z,50.744629
2018-10-06T11:05:58.328Z,50.744629
2018-10-06T11:06:13.423Z,50.744629
2018-10-06T11:06:28.356Z,50.744629
2018-10-06T11:06:43.383Z,50.744629
2018-10-06T11:06:58.285Z,50.744629
2018-10-06T11:07:13.295Z,50.744629
2018-10-06T11:07:28.462Z,50.744629
2018-10-06T11:07:58.258Z,51.043701
2018-10-06T11:08:13.229Z,51.043701
2018-10-06T11:08:28.279Z,51.043701
2018-10-06T11:08:43.252Z,51.043701
2018-10-06T11:08:58.271Z,51.043701
2018-10-06T11:09:13.326Z,51.043701
2018-10-06T11:09:28.118Z,51.043701
2018-10-06T11:09:43.322Z,51.043701
2018-10-06T11:09:58.231Z,51.043701
2018-10-06T11:10:13.185Z,51.043701
2018-10-06T11:10:28.140Z,51.043701
2018-10-06T11:10:43.122Z,51.043701
2018-10-06T11:10:58.130Z,51.043701
2018-10-06T11:11:13.238Z,51.043701
2018-10-06T11:11:28.066Z,51.043701
2018-10-06T11:11:43.033Z,51.043701
2018-10-06T11:11:58.093Z,51.043701
2018-10-06T11:12:12.995Z,51.043701
2018-10-06T11:12:28.063Z,51.043701
2018-10-06T11:12:43.028Z,51.043701
2018-10-06T11:12:58.015Z,51.043701
2018-10-06T11:13:13.021Z,51.043701
2018-10-06T11:13:28.037Z,51.043701
2018-10-06T11:13:43.119Z,51.043701
2018-10-06T11:13:57.959Z,51.043701
2018-10-06T11:14:12.987Z,51.043701
2018-10-06T11:14:27.980Z,51.043701
2018-10-06T11:14:42.927Z,51.043701
2018-10-06T11:14:57.972Z,51.043701
2018-10-06T11:15:13.024Z,51.043701
2018-10-06T11:15:27.956Z,51.043701
2018-10-06T11:15:42.983Z,51.043701
2018-10-06T11:15:57.952Z,51.043701
2018-10-06T11:16:12.964Z,51.043701
2018-10-06T11:16:27.942Z,51.043701
2018-10-06T11:16:42.758Z,51.043701
2018-10-06T11:16:57.946Z,51.043701
2018-10-06T11:17:12.854Z,51.043701
2018-10-06T11:17:27.910Z,51.043701
2018-10-06T11:17:42.824Z,51.043701
2018-10-06T11:17:57.771Z,51.043701
2018-10-06T11:18:12.799Z,51.043701
2018-10-06T11:18:27.810Z,51.043701
2018-10-06T11:18:42.787Z,51.043701
2018-10-06T11:18:57.775Z,51.043701
2018-10-06T11:19:12.768Z,51.043701
2018-10-06T11:19:27.884Z,51.043701
2018-10-06T11:19:42.761Z,51.043701
2018-10-06T11:19:57.757Z,51.043701
2018-10-06T11:20:12.822Z,51.043701
2018-10-06T11:20:27.686Z,51.043701
2018-10-06T11:20:42.840Z,51.043701
2018-10-06T11:20:57.709Z,51.043701
2018-10-06T11:21:12.818Z,51.043701
2018-10-06T11:21:27.651Z,51.043701
2018-10-06T11:21:42.633Z,51.043701
2018-10-06T11:21:57.530Z,51.043701
2018-10-06T11:22:12.493Z,51.043701
2018-10-06T11:22:27.487Z,51.043701
2018-10-06T11:22:42.475Z,51.043701
2018-10-06T11:22:57.460Z,51.043701
2018-10-06T11:23:12.452Z,51.043701
2018-10-06T11:37:08.557Z,45.20874
2018-10-06T11:37:23.626Z,45.20874
2018-10-06T11:37:38.611Z,45.20874
2018-10-06T11:37:53.349Z,45.20874
2018-10-06T11:38:08.410Z,45.20874
2018-10-06T11:38:23.230Z,45.20874
2018-10-06T11:38:38.210Z,45.20874
2018-10-06T11:38:53.263Z,45.20874
2018-10-06T11:39:08.330Z,45.20874
2018-10-06T11:39:23.298Z,45.20874
2018-10-06T11:39:38.261Z,45.20874
2018-10-06T11:39:54.307Z,45.20874
2018-10-06T11:40:08.232Z,45.20874
2018-10-06T11:40:23.057Z,45.20874
2018-10-06T11:40:38.197Z,45.20874
2018-10-06T11:40:53.095Z,45.20874
2018-10-06T11:41:17.630Z,46.459961
2018-10-06T11:41:32.601Z,47.454834
2018-10-06T11:41:47.594Z,45.361328
2018-10-06T11:42:02.628Z,45.465088
2018-10-06T11:42:17.571Z,44.9646
2018-10-06T11:42:32.557Z,45.465088
2018-10-06T11:42:47.488Z,45.263672
2018-10-06T11:43:02.511Z,44.866943
2018-10-06T11:43:17.547Z,44.665527
2018-10-06T11:43:32.491Z,44.366455
2018-10-06T11:43:47.561Z,44.567871
2018-10-06T11:44:02.458Z,44.464111
2018-10-06T11:44:17.363Z,44.067383
2018-10-06T11:44:32.344Z,44.665527
2018-10-06T11:44:47.333Z,45.959473
2018-10-06T11:45:02.304Z,45.861816
2018-10-06T11:45:17.404Z,45.76416
2018-10-06T11:45:32.319Z,45.76416
2018-10-06T11:45:47.331Z,44.9646
2018-10-06T11:46:02.400Z,44.866943
2018-10-06T11:46:17.318Z,44.866943
2018-10-06T11:46:32.305Z,44.885254
2018-10-06T11:46:47.321Z,44.787598
2018-10-06T11:47:02.167Z,44.885254
2018-10-06T11:47:17.353Z,44.885254
2018-10-06T11:47:32.241Z,44.989014
2018-10-06T11:47:47.107Z,44.787598
2018-10-06T11:48:02.155Z,44.885254
2018-10-06T11:48:17.188Z,44.787598
2018-10-06T11:48:32.056Z,44.488525
2018-10-06T11:48:47.035Z,44.384766
2018-10-06T11:49:02.024Z,44.488525
2018-10-06T11:49:16.998Z,45.385742
2018-10-06T11:49:32.000Z,44.586182
2018-10-06T11:49:47.121Z,45.288086
2018-10-06T11:50:02.052Z,45.08667
2018-10-06T11:50:16.946Z,44.287109
2018-10-06T11:50:31.944Z,44.287109
2018-10-06T11:50:46.889Z,44.689941
2018-10-06T11:51:01.885Z,44.488525
2018-10-06T11:51:16.855Z,44.689941
2018-10-06T11:51:31.864Z,44.488525
2018-10-06T11:51:46.822Z,44.586182
2018-10-06T11:52:01.822Z,46.484375
2018-10-06T11:52:16.972Z,45.385742
2018-10-06T11:52:31.903Z,46.679688
2018-10-06T11:52:46.759Z,44.989014
2018-10-06T11:53:01.760Z,44.689941
2018-10-06T11:53:16.828Z,45.782471
2018-10-06T11:53:31.797Z,46.380615
2018-10-06T11:53:46.685Z,46.081543
2018-10-06T11:54:01.685Z,44.586182
2018-10-06T11:54:16.646Z,44.586182
2018-10-06T11:54:31.796Z,44.586182
2018-10-06T11:54:46.772Z,44.989014
2018-10-06T11:55:01.716Z,45.385742
2018-10-06T11:55:16.693Z,44.287109
2018-10-06T11:55:31.762Z,44.287109
2018-10-06T11:55:46.724Z,44.189453
2018-10-06T11:56:01.610Z,44.384766
2018-10-06T11:56:16.507Z,44.586182
2018-10-06T11:56:31.496Z,44.586182
2018-10-06T11:56:46.469Z,44.586182
2018-10-06T11:57:01.460Z,44.488525
2018-10-06T11:57:16.496Z,44.384766
2018-10-06T11:57:31.689Z,44.586182
2018-10-06T11:57:46.477Z,44.488525
2018-10-06T11:58:01.387Z,44.586182
2018-10-06T11:58:16.361Z,44.488525
2018-10-06T11:58:31.367Z,44.586182
2018-10-06T11:58:46.321Z,44.488525
2018-10-06T11:59:01.313Z,44.586182
2018-10-06T11:59:16.283Z,45.184326
2018-10-06T11:59:31.269Z,45.385742
2018-10-06T11:59:46.304Z,44.885254
2018-10-06T12:00:01.447Z,45.184326
2018-10-06T12:00:16.553Z,47.381592
2018-10-06T12:00:31.225Z,46.881104
2018-10-06T12:00:46.386Z,45.184326
2018-10-06T12:01:01.265Z,44.989014
2018-10-06T12:01:16.257Z,44.885254
2018-10-06T12:01:31.139Z,44.885254
2018-10-06T12:01:46.202Z,44.885254
2018-10-06T12:02:01.164Z,44.787598
2018-10-06T12:02:16.775Z,45.08667
2018-10-06T12:02:31.059Z,44.787598
2018-10-06T12:02:46.159Z,44.989014
2018-10-06T12:03:01.108Z,44.885254
2018-10-06T12:03:16.042Z,44.885254
2018-10-06T12:03:31.024Z,44.787598
2018-10-06T12:03:46.074Z,45.08667
2018-10-06T12:04:00.957Z,44.689941
2018-10-06T12:04:15.898Z,45.483398
2018-10-06T12:04:30.928Z,44.885254
2018-10-06T12:04:45.937Z,44.586182
2018-10-06T12:05:00.947Z,44.085693
2018-10-06T12:05:15.828Z,44.989014
2018-10-06T12:05:30.985Z,44.189453
2018-10-06T12:05:45.904Z,44.085693
2018-10-06T12:06:00.768Z,44.085693
2018-10-06T12:06:15.784Z,43.890381
2018-10-06T12:06:30.833Z,43.786621
2018-10-06T12:06:45.712Z,44.085693
2018-10-06T12:07:00.787Z,44.189453
2018-10-06T12:07:16.636Z,44.287109
2018-10-06T12:07:30.722Z,44.384766
2018-10-06T12:07:45.611Z,44.488525
2018-10-06T12:08:00.686Z,44.586182
2018-10-06T12:08:15.640Z,44.488525
2018-10-06T12:08:30.575Z,44.586182
2018-10-06T12:08:45.561Z,44.689941
2018-10-06T12:09:00.672Z,44.689941
2018-10-06T12:09:15.527Z,44.885254
2018-10-06T12:09:30.510Z,44.787598
2018-10-06T12:09:45.463Z,44.787598
2018-10-06T12:10:00.507Z,44.689941
2018-10-06T12:10:15.590Z,44.885254
2018-10-06T12:10:30.565Z,45.88623
2018-10-06T12:10:45.436Z,44.787598
2018-10-06T12:11:00.566Z,44.989014
2018-10-06T12:11:15.330Z,44.787598
2018-10-06T12:11:30.564Z,45.184326
2018-10-06T12:11:45.405Z,44.787598
2018-10-06T12:12:00.315Z,44.787598
2018-10-06T12:12:15.251Z,44.787598
2018-10-06T12:12:30.454Z,44.787598
2018-10-06T12:12:45.309Z,44.787598
2018-10-06T12:13:00.466Z,44.689941
2018-10-06T12:13:15.318Z,44.384766
2018-10-06T12:13:30.396Z,43.988037
2018-10-06T12:13:45.129Z,43.768311
2018-10-06T12:14:00.206Z,43.969727
2018-10-06T12:14:15.112Z,43.267822
2018-10-06T12:14:30.224Z,43.371582
2018-10-06T12:14:45.046Z,42.773438
2018-10-06T12:15:00.169Z,43.07251
2018-10-06T12:15:15.171Z,43.371582
2018-10-06T12:15:30.098Z,43.371582
2018-10-06T12:15:45.034Z,42.871094
2018-10-06T12:16:00.145Z,41.772461
2018-10-06T12:16:14.963Z,42.370605
2018-10-06T12:16:30.188Z,42.474365
2018-10-06T12:16:45.029Z,42.773438
2018-10-06T12:16:59.923Z,42.572021
2018-10-06T12:17:14.934Z,42.370605
2018-10-06T12:17:29.906Z,42.272949
2018-10-06T12:17:44.851Z,42.071533
2018-10-06T12:18:00.809Z,41.992188
2018-10-06T12:18:14.771Z,42.193604
2018-10-06T12:18:29.914Z,42.39502
2018-10-06T12:18:44.701Z,42.492676
2018-10-06T12:18:59.701Z,42.39502
2018-10-06T12:19:14.675Z,42.492676
2018-10-06T12:19:29.664Z,42.694092
2018-10-06T12:19:44.647Z,42.993164
2018-10-06T12:19:59.673Z,42.993164
2018-10-06T12:20:14.636Z,42.791748
2018-10-06T12:20:29.771Z,42.993164
